sensor_id;sensor_type;location;lat;lon;timestamp;pressure;altitude;pressure_sealevel;temperature;humidity
59513;BME280;45330;51.634;5.562;2022-08-19T00:00:15;101269.13;;;17.62;100.00
59513;BME280;45330;51.634;5.562;2022-08-19T00:02:41;101245.94;;;17.45;100.00
59513;BME280;45330;51.634;5.562;2022-08-19T00:05:08;101266.59;;;17.58;100.00
59513;BME280;45330;51.634;5.562;2022-08-19T00:07:33;101262.47;;;17.49;100.00
59513;BME280;45330;51.634;5.562;2022-08-19T00:09:59;101264.31;;;17.47;100.00
59513;BME280;45330;51.634;5.562;2022-08-19T00:12:25;101266.09;;;17.45;100.00
59513;BME280;45330;51.634;5.562;2022-08-19T00:14:50;101257.66;;;17.34;100.00
59513;BME280;45330;51.634;5.562;2022-08-19T00:17:16;101244.72;;;17.26;100.00
59513;BME280;45330;51.634;5.562;2022-08-19T00:19:41;101260.94;;;17.42;100.00
59513;BME280;45330;51.634;5.562;2022-08-19T00:22:07;101262.66;;;17.43;100.00
59513;BME280;45330;51.634;5.562;2022-08-19T00:24:34;101247.25;;;17.29;100.00
59513;BME280;45330;51.634;5.562;2022-08-19T00:27:00;101238.75;;;17.19;100.00
59513;BME280;45330;51.634;5.562;2022-08-19T00:29:27;101249.97;;;17.26;100.00
59513;BME280;45330;51.634;5.562;2022-08-19T00:31:53;101248.44;;;17.19;100.00
59513;BME280;45330;51.634;5.562;2022-08-19T00:34:20;101271.06;;;17.24;100.00
59513;BME280;45330;51.634;5.562;2022-08-19T00:36:46;101246.97;;;17.07;100.00
59513;BME280;45330;51.634;5.562;2022-08-19T00:39:12;101273.00;;;17.18;100.00
59513;BME280;45330;51.634;5.562;2022-08-19T00:41:39;101274.13;;;17.07;100.00
59513;BME280;45330;51.634;5.562;2022-08-19T00:44:21;101277.63;;;17.08;100.00
59513;BME280;45330;51.634;5.562;2022-08-19T00:46:49;101281.16;;;17.07;100.00
59513;BME280;45330;51.634;5.562;2022-08-19T00:49:18;101272.50;;;17.03;100.00
59513;BME280;45330;51.634;5.562;2022-08-19T00:51:47;101259.63;;;16.92;100.00
59513;BME280;45330;51.634;5.562;2022-08-19T00:54:14;101275.91;;;17.07;100.00
59513;BME280;45330;51.634;5.562;2022-08-19T00:56:40;101233.50;;;16.85;100.00
59513;BME280;45330;51.634;5.562;2022-08-19T00:59:06;101254.47;;;16.88;100.00
59513;BME280;45330;51.634;5.562;2022-08-19T01:01:38;101258.06;;;16.84;100.00
59513;BME280;45330;51.634;5.562;2022-08-19T01:04:04;101263.34;;;16.84;100.00
59513;BME280;45330;51.634;5.562;2022-08-19T01:06:30;101256.53;;;16.75;100.00
59513;BME280;45330;51.634;5.562;2022-08-19T01:08:57;101246.94;;;16.74;100.00
59513;BME280;45330;51.634;5.562;2022-08-19T01:11:23;101242.69;;;16.68;100.00
59513;BME280;45330;51.634;5.562;2022-08-19T01:13:50;101248.72;;;16.72;100.00
59513;BME280;45330;51.634;5.562;2022-08-19T01:16:19;101243.63;;;16.66;100.00
59513;BME280;45330;51.634;5.562;2022-08-19T01:18:45;101264.44;;;16.73;100.00
59513;BME280;45330;51.634;5.562;2022-08-19T01:23:49;101269.81;;;16.69;100.00
59513;BME280;45330;51.634;5.562;2022-08-19T01:26:21;101251.66;;;16.59;100.00
59513;BME280;45330;51.634;5.562;2022-08-19T01:28:49;101265.47;;;16.68;100.00
59513;BME280;45330;51.634;5.562;2022-08-19T01:31:21;101241.25;;;16.55;100.00
59513;BME280;45330;51.634;5.562;2022-08-19T01:33:48;101261.25;;;16.60;100.00
59513;BME280;45330;51.634;5.562;2022-08-19T01:36:22;101261.25;;;16.60;100.00
59513;BME280;45330;51.634;5.562;2022-08-19T01:38:48;101263.22;;;16.52;100.00
59513;BME280;45330;51.634;5.562;2022-08-19T01:41:14;101257.09;;;16.52;100.00
59513;BME280;45330;51.634;5.562;2022-08-19T01:43:40;101245.22;;;16.35;100.00
59513;BME280;45330;51.634;5.562;2022-08-19T01:46:06;101269.47;;;16.46;100.00
59513;BME280;45330;51.634;5.562;2022-08-19T01:48:39;101242.81;;;16.27;100.00
59513;BME280;45330;51.634;5.562;2022-08-19T01:51:06;101248.91;;;16.28;100.00
59513;BME280;45330;51.634;5.562;2022-08-19T01:53:31;101267.13;;;16.36;100.00
59513;BME280;45330;51.634;5.562;2022-08-19T01:55:57;101265.34;;;16.36;100.00
59513;BME280;45330;51.634;5.562;2022-08-19T01:58:25;101268.91;;;16.34;100.00
59513;BME280;45330;51.634;5.562;2022-08-19T02:00:54;101268.91;;;16.34;100.00
59513;BME280;45330;51.634;5.562;2022-08-19T02:03:19;101274.31;;;16.27;100.00
59513;BME280;45330;51.634;5.562;2022-08-19T02:05:45;101281.28;;;16.28;100.00
59513;BME280;45330;51.634;5.562;2022-08-19T02:08:11;101263.22;;;16.15;100.00
59513;BME280;45330;51.634;5.562;2022-08-19T02:10:42;101266.66;;;16.17;100.00
59513;BME280;45330;51.634;5.562;2022-08-19T02:13:09;101279.63;;;16.24;100.00
59513;BME280;45330;51.634;5.562;2022-08-19T02:15:34;101275.41;;;16.17;100.00
59513;BME280;45330;51.634;5.562;2022-08-19T02:17:59;101283.28;;;16.17;100.00
59513;BME280;45330;51.634;5.562;2022-08-19T02:20:25;101284.19;;;16.16;100.00
59513;BME280;45330;51.634;5.562;2022-08-19T02:22:50;101283.34;;;16.14;100.00
59513;BME280;45330;51.634;5.562;2022-08-19T02:25:15;101265.19;;;16.05;100.00
59513;BME280;45330;51.634;5.562;2022-08-19T02:27:42;101264.31;;;16.04;100.00
59513;BME280;45330;51.634;5.562;2022-08-19T02:30:12;101278.31;;;16.05;100.00
59513;BME280;45330;51.634;5.562;2022-08-19T02:32:38;101285.34;;;16.03;100.00
59513;BME280;45330;51.634;5.562;2022-08-19T02:35:04;101249.97;;;15.78;100.00
59513;BME280;45330;51.634;5.562;2022-08-19T02:37:30;101294.97;;;16.04;100.00
59513;BME280;45330;51.634;5.562;2022-08-19T02:40:14;101293.34;;;15.98;100.00
59513;BME280;45330;51.634;5.562;2022-08-19T02:42:40;101287.28;;;15.94;100.00
59513;BME280;45330;51.634;5.562;2022-08-19T02:45:06;101297.78;;;15.94;100.00
59513;BME280;45330;51.634;5.562;2022-08-19T02:47:33;101276.19;;;15.82;100.00
59513;BME280;45330;51.634;5.562;2022-08-19T02:50:01;101294.34;;;15.92;100.00
59513;BME280;45330;51.634;5.562;2022-08-19T02:52:27;101270.13;;;15.76;100.00
59513;BME280;45330;51.634;5.562;2022-08-19T02:54:53;101274.66;;;15.70;100.00
59513;BME280;45330;51.634;5.562;2022-08-19T02:57:18;101297.97;;;15.85;100.00
59513;BME280;45330;51.634;5.562;2022-08-19T02:59:44;101300.56;;;15.87;100.00
59513;BME280;45330;51.634;5.562;2022-08-19T03:02:09;101284.16;;;15.75;100.00
59513;BME280;45330;51.634;5.562;2022-08-19T03:04:34;101300.69;;;15.81;100.00
59513;BME280;45330;51.634;5.562;2022-08-19T03:07:00;101300.72;;;15.79;100.00
59513;BME280;45330;51.634;5.562;2022-08-19T03:09:25;101300.75;;;15.76;100.00
59513;BME280;45330;51.634;5.562;2022-08-19T03:11:51;101298.19;;;15.73;100.00
59513;BME280;45330;51.634;5.562;2022-08-19T03:14:16;101272.19;;;15.60;100.00
59513;BME280;45330;51.634;5.562;2022-08-19T03:16:46;101285.19;;;15.68;100.00
59513;BME280;45330;51.634;5.562;2022-08-19T03:19:13;101262.84;;;15.49;100.00
59513;BME280;45330;51.634;5.562;2022-08-19T03:21:39;101296.66;;;15.63;100.00
59513;BME280;45330;51.634;5.562;2022-08-19T03:24:07;101304.53;;;15.63;100.00
59513;BME280;45330;51.634;5.562;2022-08-19T03:26:33;101269.84;;;15.47;100.00
59513;BME280;45330;51.634;5.562;2022-08-19T03:29:02;101290.72;;;15.53;100.00
59513;BME280;45330;51.634;5.562;2022-08-19T03:31:28;101298.47;;;15.59;100.00
59513;BME280;45330;51.634;5.562;2022-08-19T03:33:53;101296.00;;;15.50;100.00
59513;BME280;45330;51.634;5.562;2022-08-19T03:36:22;101305.56;;;15.54;100.00
59513;BME280;45330;51.634;5.562;2022-08-19T03:38:51;101309.13;;;15.51;100.00
59513;BME280;45330;51.634;5.562;2022-08-19T03:41:20;101310.00;;;15.50;100.00
59513;BME280;45330;51.634;5.562;2022-08-19T03:43:46;101289.31;;;15.35;100.00
59513;BME280;45330;51.634;5.562;2022-08-19T03:46:16;101303.13;;;15.44;100.00
59513;BME280;45330;51.634;5.562;2022-08-19T03:48:43;101275.38;;;15.31;100.00
59513;BME280;45330;51.634;5.562;2022-08-19T03:51:17;101291.03;;;15.37;100.00
59513;BME280;45330;51.634;5.562;2022-08-19T03:53:45;101269.38;;;15.24;100.00
59513;BME280;45330;51.634;5.562;2022-08-19T03:56:12;101286.63;;;15.38;100.00
59513;BME280;45330;51.634;5.562;2022-08-19T03:58:38;101270.38;;;15.20;100.00
59513;BME280;45330;51.634;5.562;2022-08-19T04:01:09;101273.81;;;15.22;100.00
59513;BME280;45330;51.634;5.562;2022-08-19T04:03:35;101274.75;;;15.18;100.00
59513;BME280;45330;51.634;5.562;2022-08-19T04:06:28;101296.47;;;15.26;100.00
59513;BME280;45330;51.634;5.562;2022-08-19T04:08:54;101300.00;;;15.24;100.00
59513;BME280;45330;51.634;5.562;2022-08-19T04:11:25;101287.91;;;15.17;100.00
59513;BME280;45330;51.634;5.562;2022-08-19T04:13:51;101301.81;;;15.19;100.00
59513;BME280;45330;51.634;5.562;2022-08-19T04:16:22;101293.09;;;15.18;100.00
59513;BME280;45330;51.634;5.562;2022-08-19T04:18:48;101297.56;;;15.15;100.00
59513;BME280;45330;51.634;5.562;2022-08-19T04:21:19;101289.75;;;15.10;100.00
59513;BME280;45330;51.634;5.562;2022-08-19T04:23:45;101294.22;;;15.05;100.00
59513;BME280;45330;51.634;5.562;2022-08-19T04:26:15;101272.59;;;14.92;100.00
59513;BME280;45330;51.634;5.562;2022-08-19T04:28:42;101292.56;;;15.01;100.00
59513;BME280;45330;51.634;5.562;2022-08-19T04:31:13;101280.44;;;14.95;100.00
59513;BME280;45330;51.634;5.562;2022-08-19T04:33:39;101290.81;;;15.00;100.00
59513;BME280;45330;51.634;5.562;2022-08-19T04:36:04;101265.72;;;14.85;100.00
59513;BME280;45330;51.634;5.562;2022-08-19T04:38:30;101253.63;;;14.78;100.00
59513;BME280;45330;51.634;5.562;2022-08-19T04:40:55;101285.63;;;14.97;100.00
59513;BME280;45330;51.634;5.562;2022-08-19T04:43:39;101265.72;;;14.85;100.00
59513;BME280;45330;51.634;5.562;2022-08-19T04:46:09;101282.16;;;14.95;100.00
59513;BME280;45330;51.634;5.562;2022-08-19T04:48:35;101282.16;;;14.95;100.00
59513;BME280;45330;51.634;5.562;2022-08-19T04:51:07;101290.94;;;14.94;100.00
59513;BME280;45330;51.634;5.562;2022-08-19T04:53:35;101286.56;;;14.94;100.00
59513;BME280;45330;51.634;5.562;2022-08-19T04:56:05;101272.75;;;14.83;100.00
59513;BME280;45330;51.634;5.562;2022-08-19T04:58:32;101291.75;;;14.96;100.00
59513;BME280;45330;51.634;5.562;2022-08-19T05:00:58;101295.22;;;14.98;100.00
59513;BME280;45330;51.634;5.562;2022-08-19T05:03:25;101280.50;;;14.89;100.00
59513;BME280;45330;51.634;5.562;2022-08-19T05:05:50;101301.38;;;14.97;100.00
59513;BME280;45330;51.634;5.562;2022-08-19T05:08:18;101287.53;;;14.88;100.00
59513;BME280;45330;51.634;5.562;2022-08-19T05:10:47;101288.22;;;14.98;100.00
59513;BME280;45330;51.634;5.562;2022-08-19T05:13:13;101290.69;;;15.06;100.00
59513;BME280;45330;51.634;5.562;2022-08-19T05:15:39;101286.06;;;15.22;100.00
59513;BME280;45330;51.634;5.562;2022-08-19T05:18:05;101294.66;;;15.30;100.00
59513;BME280;45330;51.634;5.562;2022-08-19T05:20:49;101297.13;;;15.38;100.00
59513;BME280;45330;51.634;5.562;2022-08-19T05:23:33;101306.50;;;15.51;100.00
59513;BME280;45330;51.634;5.562;2022-08-19T05:25:58;101318.03;;;15.89;100.00
59513;BME280;45330;51.634;5.562;2022-08-19T05:28:23;101324.09;;;16.32;100.00
59513;BME280;45330;51.634;5.562;2022-08-19T05:30:49;101326.38;;;16.85;100.00
59513;BME280;45330;51.634;5.562;2022-08-19T05:33:17;101332.25;;;17.31;100.00
59513;BME280;45330;51.634;5.562;2022-08-19T05:35:42;101330.81;;;17.83;100.00
59513;BME280;45330;51.634;5.562;2022-08-19T05:38:09;101341.13;;;18.23;100.00
59513;BME280;45330;51.634;5.562;2022-08-19T05:40:37;101334.75;;;18.58;100.00
59513;BME280;45330;51.634;5.562;2022-08-19T05:43:04;101335.28;;;18.69;100.00
59513;BME280;45330;51.634;5.562;2022-08-19T05:45:30;101347.97;;;18.85;100.00
59513;BME280;45330;51.634;5.562;2022-08-19T05:47:56;101317.56;;;19.01;100.00
59513;BME280;45330;51.634;5.562;2022-08-19T05:50:21;101340.84;;;19.41;100.00
59513;BME280;45330;51.634;5.562;2022-08-19T05:52:47;101322.16;;;19.47;99.83
59513;BME280;45330;51.634;5.562;2022-08-19T05:55:13;101342.63;;;19.65;98.78
59513;BME280;45330;51.634;5.562;2022-08-19T05:57:38;101342.94;;;20.05;96.31
59513;BME280;45330;51.634;5.562;2022-08-19T06:00:06;101321.72;;;20.30;93.13
59513;BME280;45330;51.634;5.562;2022-08-19T06:02:35;101309.22;;;20.56;89.63
59513;BME280;45330;51.634;5.562;2022-08-19T06:05:02;101329.00;;;20.69;89.28
59513;BME280;45330;51.634;5.562;2022-08-19T06:07:28;101313.16;;;20.69;89.44
59513;BME280;45330;51.634;5.562;2022-08-19T06:09:54;101328.16;;;20.69;89.80
59513;BME280;45330;51.634;5.562;2022-08-19T06:12:20;101312.63;;;20.60;89.75
59513;BME280;45330;51.634;5.562;2022-08-19T06:14:51;101327.84;;;20.77;88.30
59513;BME280;45330;51.634;5.562;2022-08-19T06:17:17;101307.16;;;20.64;88.10
59513;BME280;45330;51.634;5.562;2022-08-19T06:19:43;101326.78;;;20.81;87.21
59513;BME280;45330;51.634;5.562;2022-08-19T06:22:09;101325.31;;;20.96;86.67
59513;BME280;45330;51.634;5.562;2022-08-19T06:24:36;101328.25;;;20.88;86.72
59513;BME280;45330;51.634;5.562;2022-08-19T06:27:03;101331.50;;;20.50;87.89
59513;BME280;45330;51.634;5.562;2022-08-19T06:29:30;101333.13;;;20.09;90.70
59513;BME280;45330;51.634;5.562;2022-08-19T06:31:58;101317.00;;;19.67;92.70
59513;BME280;45330;51.634;5.562;2022-08-19T06:34:25;101328.94;;;19.54;94.43
59513;BME280;45330;51.634;5.562;2022-08-19T06:36:52;101320.38;;;19.47;95.20
59513;BME280;45330;51.634;5.562;2022-08-19T06:39:24;101326.72;;;19.42;96.93
59513;BME280;45330;51.634;5.562;2022-08-19T06:41:51;101316.72;;;19.26;97.33
59513;BME280;45330;51.634;5.562;2022-08-19T06:44:19;101327.28;;;19.26;97.81
59513;BME280;45330;51.634;5.562;2022-08-19T06:46:45;101321.44;;;19.16;98.50
59513;BME280;45330;51.634;5.562;2022-08-19T06:49:11;101315.25;;;19.17;98.52
59513;BME280;45330;51.634;5.562;2022-08-19T06:51:43;101332.44;;;19.29;99.41
59513;BME280;45330;51.634;5.562;2022-08-19T06:54:09;101328.53;;;19.41;98.76
59513;BME280;45330;51.634;5.562;2022-08-19T06:56:35;101329.00;;;19.52;97.78
59513;BME280;45330;51.634;5.562;2022-08-19T06:59:15;101341.69;;;19.66;98.04
59513;BME280;45330;51.634;5.562;2022-08-19T07:01:44;101323.22;;;19.66;97.05
59513;BME280;45330;51.634;5.562;2022-08-19T07:04:13;101338.75;;;19.74;96.35
59513;BME280;45330;51.634;5.562;2022-08-19T07:06:39;101333.72;;;19.93;95.36
59513;BME280;45330;51.634;5.562;2022-08-19T07:09:06;101321.16;;;19.98;94.57
59513;BME280;45330;51.634;5.562;2022-08-19T07:11:32;101332.88;;;20.15;93.76
59513;BME280;45330;51.634;5.562;2022-08-19T07:13:58;101332.59;;;20.22;93.70
59513;BME280;45330;51.634;5.562;2022-08-19T07:16:24;101335.84;;;20.29;92.68
59513;BME280;45330;51.634;5.562;2022-08-19T07:18:50;101341.38;;;20.23;93.50
59513;BME280;45330;51.634;5.562;2022-08-19T07:21:19;101339.25;;;20.09;94.42
59513;BME280;45330;51.634;5.562;2022-08-19T07:23:45;101352.66;;;20.04;94.80
59513;BME280;45330;51.634;5.562;2022-08-19T07:26:17;101341.78;;;20.12;95.63
59513;BME280;45330;51.634;5.562;2022-08-19T07:28:45;101354.78;;;20.18;94.47
59513;BME280;45330;51.634;5.562;2022-08-19T07:31:12;101345.88;;;20.21;94.71
59513;BME280;45330;51.634;5.562;2022-08-19T07:33:39;101340.47;;;20.24;95.11
59513;BME280;45330;51.634;5.562;2022-08-19T07:36:07;101347.91;;;20.36;94.68
59513;BME280;45330;51.634;5.562;2022-08-19T07:38:35;101339.25;;;20.55;93.29
59513;BME280;45330;51.634;5.562;2022-08-19T07:41:00;101347.97;;;20.57;93.85
59513;BME280;45330;51.634;5.562;2022-08-19T07:43:27;101351.38;;;20.61;93.70
59513;BME280;45330;51.634;5.562;2022-08-19T07:45:53;101342.00;;;20.52;92.13
59513;BME280;45330;51.634;5.562;2022-08-19T07:48:22;101349.47;;;20.42;93.64
59513;BME280;45330;51.634;5.562;2022-08-19T07:50:51;101368.94;;;20.62;93.69
59513;BME280;45330;51.634;5.562;2022-08-19T07:53:16;101351.50;;;20.58;93.52
59513;BME280;45330;51.634;5.562;2022-08-19T07:55:42;101368.34;;;20.55;93.10
59513;BME280;45330;51.634;5.562;2022-08-19T07:58:07;101370.66;;;20.40;94.07
59513;BME280;45330;51.634;5.562;2022-08-19T08:00:33;101363.16;;;20.30;94.94
59513;BME280;45330;51.634;5.562;2022-08-19T08:02:59;101384.00;;;20.37;94.51
59513;BME280;45330;51.634;5.562;2022-08-19T08:05:25;101359.56;;;20.31;95.10
59513;BME280;45330;51.634;5.562;2022-08-19T08:08:09;101356.50;;;20.42;94.54
59513;BME280;45330;51.634;5.562;2022-08-19T08:10:53;101378.47;;;20.44;93.80
59513;BME280;45330;51.634;5.562;2022-08-19T08:13:19;101379.41;;;20.43;94.14
59513;BME280;45330;51.634;5.562;2022-08-19T08:15:44;101388.06;;;20.46;94.04
59513;BME280;45330;51.634;5.562;2022-08-19T08:18:11;101381.13;;;20.44;93.80
59513;BME280;45330;51.634;5.562;2022-08-19T08:20:38;101387.19;;;20.92;92.51
59513;BME280;45330;51.634;5.562;2022-08-19T08:23:03;101389.50;;;21.21;89.36
59513;BME280;45330;51.634;5.562;2022-08-19T08:25:47;101398.03;;;21.49;87.92
59513;BME280;45330;51.634;5.562;2022-08-19T08:28:14;101383.50;;;21.59;86.49
59513;BME280;45330;51.634;5.562;2022-08-19T08:30:40;101406.78;;;21.92;85.00
59513;BME280;45330;51.634;5.562;2022-08-19T08:33:08;101397.09;;;21.91;84.00
59513;BME280;45330;51.634;5.562;2022-08-19T08:35:34;101413.50;;;21.99;83.29
59513;BME280;45330;51.634;5.562;2022-08-19T08:38:00;101392.59;;;21.93;83.43
59513;BME280;45330;51.634;5.562;2022-08-19T08:40:43;101417.22;;;21.95;85.20
59513;BME280;45330;51.634;5.562;2022-08-19T08:43:23;101418.81;;;21.99;84.32
59513;BME280;45330;51.634;5.562;2022-08-19T08:45:57;101425.63;;;22.05;84.63
59513;BME280;45330;51.634;5.562;2022-08-19T08:48:51;101425.06;;;22.17;84.03
59513;BME280;45330;51.634;5.562;2022-08-19T08:51:35;101430.31;;;22.19;82.85
59513;BME280;45330;51.634;5.562;2022-08-19T08:54:05;101418.72;;;22.21;81.57
59513;BME280;45330;51.634;5.562;2022-08-19T08:56:32;101427.50;;;22.42;81.64
59513;BME280;45330;51.634;5.562;2022-08-19T08:59:26;101426.19;;;22.51;81.73
59513;BME280;45330;51.634;5.562;2022-08-19T09:01:53;101419.69;;;22.39;80.83
59513;BME280;45330;51.634;5.562;2022-08-19T09:04:19;101410.16;;;22.15;81.79
59513;BME280;45330;51.634;5.562;2022-08-19T09:09:34;101421.06;;;22.08;83.06
59513;BME280;45330;51.634;5.562;2022-08-19T09:12:15;101423.41;;;22.35;80.74
59513;BME280;45330;51.634;5.562;2022-08-19T09:15:04;101422.47;;;22.36;80.92
59513;BME280;45330;51.634;5.562;2022-08-19T09:17:31;101409.78;;;22.43;79.65
59513;BME280;45330;51.634;5.562;2022-08-19T09:20:15;101403.97;;;22.54;79.28
59513;BME280;45330;51.634;5.562;2022-08-19T09:22:42;101422.88;;;22.65;77.06
59513;BME280;45330;51.634;5.562;2022-08-19T09:25:20;101411.69;;;22.77;77.82
59513;BME280;45330;51.634;5.562;2022-08-19T09:27:48;101408.28;;;22.93;75.83
59513;BME280;45330;51.634;5.562;2022-08-19T09:30:17;101430.53;;;23.27;75.13
59513;BME280;45330;51.634;5.562;2022-08-19T09:32:44;101422.56;;;23.27;74.84
59513;BME280;45330;51.634;5.562;2022-08-19T09:35:11;101431.94;;;22.98;76.02
59513;BME280;45330;51.634;5.562;2022-08-19T09:37:37;101424.19;;;22.56;77.28
59513;BME280;45330;51.634;5.562;2022-08-19T09:40:04;101437.31;;;22.59;77.54
59513;BME280;45330;51.634;5.562;2022-08-19T09:42:29;101441.97;;;22.35;78.43
59513;BME280;45330;51.634;5.562;2022-08-19T09:44:55;101437.25;;;22.21;79.46
59513;BME280;45330;51.634;5.562;2022-08-19T09:47:20;101435.75;;;22.16;80.42
59513;BME280;45330;51.634;5.562;2022-08-19T09:49:45;101446.34;;;22.16;81.24
59513;BME280;45330;51.634;5.562;2022-08-19T09:52:13;101419.41;;;22.06;81.02
59513;BME280;45330;51.634;5.562;2022-08-19T09:54:40;101438.50;;;22.33;80.42
59513;BME280;45330;51.634;5.562;2022-08-19T09:57:06;101438.78;;;22.27;80.13
59513;BME280;45330;51.634;5.562;2022-08-19T09:59:31;101448.47;;;22.47;79.06
59513;BME280;45330;51.634;5.562;2022-08-19T10:01:57;101439.03;;;22.60;78.08
59513;BME280;45330;51.634;5.562;2022-08-19T10:04:23;101441.53;;;22.83;77.59
59513;BME280;45330;51.634;5.562;2022-08-19T10:07:08;101423.53;;;23.07;76.56
59513;BME280;45330;51.634;5.562;2022-08-19T10:09:33;101410.53;;;23.20;74.32
59513;BME280;45330;51.634;5.562;2022-08-19T10:11:59;101417.63;;;23.54;73.63
59513;BME280;45330;51.634;5.562;2022-08-19T10:14:26;101449.44;;;23.73;71.95
59513;BME280;45330;51.634;5.562;2022-08-19T10:16:52;101425.97;;;23.81;71.50
59513;BME280;45330;51.634;5.562;2022-08-19T10:19:17;101440.59;;;24.24;71.16
59513;BME280;45330;51.634;5.562;2022-08-19T10:21:45;101422.00;;;24.40;69.24
59513;BME280;45330;51.634;5.562;2022-08-19T10:24:10;101435.75;;;24.64;68.35
59513;BME280;45330;51.634;5.562;2022-08-19T10:26:38;101418.78;;;24.66;68.08
59513;BME280;45330;51.634;5.562;2022-08-19T10:29:06;101431.84;;;24.71;66.71
59513;BME280;45330;51.634;5.562;2022-08-19T10:31:33;101435.44;;;24.70;67.99
59513;BME280;45330;51.634;5.562;2022-08-19T10:33:59;101430.06;;;24.54;66.53
59513;BME280;45330;51.634;5.562;2022-08-19T10:36:31;101427.66;;;24.34;68.51
59513;BME280;45330;51.634;5.562;2022-08-19T10:38:58;101440.25;;;24.30;68.98
59513;BME280;45330;51.634;5.562;2022-08-19T10:41:26;101442.91;;;24.14;68.77
59513;BME280;45330;51.634;5.562;2022-08-19T10:43:54;101441.75;;;23.85;70.24
59513;BME280;45330;51.634;5.562;2022-08-19T10:46:21;101437.56;;;23.63;71.09
59513;BME280;45330;51.634;5.562;2022-08-19T10:48:47;101420.63;;;23.31;71.34
59513;BME280;45330;51.634;5.562;2022-08-19T10:51:13;101433.44;;;23.22;73.53
59513;BME280;45330;51.634;5.562;2022-08-19T10:53:57;101432.94;;;23.14;73.65
59513;BME280;45330;51.634;5.562;2022-08-19T10:56:23;101430.13;;;23.17;74.06
59513;BME280;45330;51.634;5.562;2022-08-19T10:59:07;101417.25;;;23.44;73.29
59513;BME280;45330;51.634;5.562;2022-08-19T11:01:34;101409.63;;;23.56;71.50
59513;BME280;45330;51.634;5.562;2022-08-19T11:04:01;101414.41;;;23.83;70.47
59513;BME280;45330;51.634;5.562;2022-08-19T11:06:28;101424.91;;;24.19;69.42
59513;BME280;45330;51.634;5.562;2022-08-19T11:08:54;101400.03;;;24.36;67.35
59513;BME280;45330;51.634;5.562;2022-08-19T11:11:20;101414.47;;;24.64;66.32
59513;BME280;45330;51.634;5.562;2022-08-19T11:13:47;101416.91;;;24.69;66.67
59513;BME280;45330;51.634;5.562;2022-08-19T11:16:19;101400.72;;;24.88;67.07
59513;BME280;45330;51.634;5.562;2022-08-19T11:18:54;101410.69;;;25.14;66.29
59513;BME280;45330;51.634;5.562;2022-08-19T11:21:24;101398.84;;;25.20;64.63
59513;BME280;45330;51.634;5.562;2022-08-19T11:23:52;101411.13;;;25.39;63.76
59513;BME280;45330;51.634;5.562;2022-08-19T11:26:18;101417.94;;;25.43;63.95
59513;BME280;45330;51.634;5.562;2022-08-19T11:28:44;101420.91;;;25.38;63.52
59513;BME280;45330;51.634;5.562;2022-08-19T11:31:16;101400.81;;;25.32;63.74
59513;BME280;45330;51.634;5.562;2022-08-19T11:33:42;101416.16;;;25.43;63.66
59513;BME280;45330;51.634;5.562;2022-08-19T11:36:08;101411.69;;;25.44;62.54
59513;BME280;45330;51.634;5.562;2022-08-19T11:38:35;101414.94;;;25.49;62.31
59513;BME280;45330;51.634;5.562;2022-08-19T11:41:03;101409.72;;;25.62;60.76
59513;BME280;45330;51.634;5.562;2022-08-19T11:43:29;101410.22;;;25.83;60.68
59513;BME280;45330;51.634;5.562;2022-08-19T11:45:56;101407.31;;;26.02;59.97
59513;BME280;45330;51.634;5.562;2022-08-19T11:48:23;101393.91;;;25.73;59.95
59513;BME280;45330;51.634;5.562;2022-08-19T11:50:50;101399.34;;;25.72;60.45
59513;BME280;45330;51.634;5.562;2022-08-19T11:53:17;101397.06;;;25.65;61.66
59513;BME280;45330;51.634;5.562;2022-08-19T11:55:44;101398.94;;;25.49;62.19
59513;BME280;45330;51.634;5.562;2022-08-19T11:58:11;101403.41;;;25.18;61.93
59513;BME280;45330;51.634;5.562;2022-08-19T12:00:38;101408.09;;;24.98;63.84
59513;BME280;45330;51.634;5.562;2022-08-19T12:03:03;101385.78;;;24.85;63.96
59513;BME280;45330;51.634;5.562;2022-08-19T12:05:29;101396.75;;;24.95;65.29
59513;BME280;45330;51.634;5.562;2022-08-19T12:07:55;101404.69;;;24.96;62.53
59513;BME280;45330;51.634;5.562;2022-08-19T12:10:21;101393.06;;;24.97;62.34
59513;BME280;45330;51.634;5.562;2022-08-19T12:12:47;101407.41;;;25.25;61.44
59513;BME280;45330;51.634;5.562;2022-08-19T12:15:13;101409.13;;;25.57;60.12
59513;BME280;45330;51.634;5.562;2022-08-19T12:17:40;101416.03;;;25.90;60.46
59513;BME280;45330;51.634;5.562;2022-08-19T12:20:08;101420.69;;;26.00;59.12
59513;BME280;45330;51.634;5.562;2022-08-19T12:22:35;101413.00;;;26.10;58.18
59513;BME280;45330;51.634;5.562;2022-08-19T12:25:02;101416.91;;;26.19;58.74
59513;BME280;45330;51.634;5.562;2022-08-19T12:27:28;101391.84;;;26.22;58.31
59513;BME280;45330;51.634;5.562;2022-08-19T12:29:53;101403.31;;;26.51;58.98
59513;BME280;45330;51.634;5.562;2022-08-19T12:32:19;101406.63;;;26.69;57.15
59513;BME280;45330;51.634;5.562;2022-08-19T12:34:44;101398.22;;;26.75;56.46
59513;BME280;45330;51.634;5.562;2022-08-19T12:37:12;101376.34;;;26.56;56.28
59513;BME280;45330;51.634;5.562;2022-08-19T12:39:41;101374.66;;;26.40;56.39
59513;BME280;45330;51.634;5.562;2022-08-19T12:42:08;101392.41;;;26.27;57.37
59513;BME280;45330;51.634;5.562;2022-08-19T12:44:34;101388.91;;;26.12;58.38
59513;BME280;45330;51.634;5.562;2022-08-19T12:46:59;101393.56;;;25.94;59.39
59513;BME280;45330;51.634;5.562;2022-08-19T12:49:27;101399.44;;;25.99;59.05
59513;BME280;45330;51.634;5.562;2022-08-19T12:51:52;101371.06;;;25.69;59.87
59513;BME280;45330;51.634;5.562;2022-08-19T12:54:18;101368.88;;;25.90;60.38